createdAt,value
2019-03-18T00:00:21.937Z,4.64
2019-03-18T00:02:50.405Z,4.60
2019-03-18T00:05:18.992Z,4.65
2019-03-18T00:07:47.457Z,4.59
2019-03-18T00:10:16.085Z,4.63
2019-03-18T00:12:44.718Z,4.52
2019-03-18T00:15:13.113Z,4.59
2019-03-18T00:17:41.493Z,4.46
2019-03-18T00:20:10.981Z,4.60
2019-03-18T00:22:39.603Z,4.53
2019-03-18T00:25:10.778Z,4.53
2019-03-18T00:27:39.413Z,4.64
2019-03-18T00:30:20.460Z,4.63
2019-03-18T00:32:49.011Z,4.67
2019-03-18T00:35:17.398Z,4.67
2019-03-18T00:37:45.795Z,4.61
2019-03-18T00:40:19.287Z,4.57
2019-03-18T00:42:47.684Z,4.53
2019-03-18T00:45:16.139Z,4.37
2019-03-18T00:47:44.600Z,4.31
2019-03-18T00:50:16.584Z,4.25
2019-03-18T00:52:45.246Z,4.27
2019-03-18T00:55:13.860Z,4.23
2019-03-18T00:57:42.310Z,4.19
2019-03-18T01:00:17.522Z,4.10
2019-03-18T01:02:49.118Z,4.11
2019-03-18T01:05:16.266Z,4.07
2019-03-18T01:07:44.722Z,4.04
2019-03-18T01:10:19.097Z,4.04
2019-03-18T01:12:47.724Z,3.97
2019-03-18T01:15:27.583Z,3.93
2019-03-18T01:17:47.415Z,3.89
2019-03-18T01:20:18.097Z,3.79
2019-03-18T01:22:46.695Z,3.89
2019-03-18T01:25:15.294Z,3.88
2019-03-18T01:27:44.702Z,3.79
2019-03-18T01:30:14.321Z,3.80
2019-03-18T01:32:42.703Z,3.81
2019-03-18T01:35:11.442Z,3.77
2019-03-18T01:37:40.865Z,3.69
2019-03-18T01:40:11.569Z,3.72
2019-03-18T01:42:39.958Z,3.75
2019-03-18T01:45:09.721Z,3.73
2019-03-18T01:47:38.106Z,3.71
2019-03-18T01:50:12.580Z,3.68
2019-03-18T01:52:41.698Z,3.63
2019-03-18T01:55:10.742Z,3.62
2019-03-18T01:57:39.139Z,3.64
2019-03-18T02:00:10.604Z,3.63
2019-03-18T02:02:38.917Z,3.55
2019-03-18T02:05:08.990Z,3.54
2019-03-18T02:07:37.366Z,3.53
2019-03-18T02:10:11.799Z,3.51
2019-03-18T02:12:40.193Z,3.49
2019-03-18T02:15:12.364Z,3.49
2019-03-18T02:17:41.079Z,3.53
2019-03-18T02:20:13.972Z,3.54
2019-03-18T02:22:42.664Z,3.51
2019-03-18T02:25:11.484Z,3.51
2019-03-18T02:27:39.932Z,3.46
2019-03-18T02:30:14.263Z,3.45
2019-03-18T02:32:42.659Z,3.41
2019-03-18T02:35:11.347Z,3.47
2019-03-18T02:37:39.945Z,3.46
2019-03-18T02:40:10.184Z,3.42
2019-03-18T02:42:38.872Z,3.42
2019-03-18T02:45:10.218Z,3.37
2019-03-18T02:47:38.695Z,3.37
2019-03-18T02:50:08.629Z,3.42
2019-03-18T02:52:37.315Z,3.44
2019-03-18T02:55:06.890Z,3.37
2019-03-18T02:57:35.676Z,3.32
2019-03-18T03:00:09.882Z,3.31
2019-03-18T03:02:38.258Z,3.29
2019-03-18T03:05:08.635Z,3.27
2019-03-18T03:07:37.024Z,3.20
2019-03-18T03:10:07.057Z,3.02
2019-03-18T03:12:35.445Z,2.96
2019-03-18T03:15:04.808Z,2.91
2019-03-18T03:17:33.432Z,2.83
2019-03-18T03:20:02.062Z,2.75
2019-03-18T03:22:30.447Z,2.71
2019-03-18T03:24:59.295Z,2.70
2019-03-18T03:27:27.675Z,2.70
2019-03-18T03:29:56.072Z,2.73
2019-03-18T03:32:24.686Z,2.67
2019-03-18T03:34:53.358Z,2.93
2019-03-18T03:37:21.767Z,2.92
2019-03-18T03:39:50.133Z,3.21
2019-03-18T03:42:18.819Z,3.27
2019-03-18T03:44:47.275Z,3.36
2019-03-18T03:47:15.972Z,3.58
2019-03-18T03:49:44.619Z,3.57
2019-03-18T03:52:12.987Z,3.61
2019-03-18T03:54:41.685Z,3.63
2019-03-18T03:57:10.410Z,3.57
2019-03-18T03:59:38.804Z,3.57
2019-03-18T04:02:07.323Z,3.65
2019-03-18T04:04:36.215Z,3.54
2019-03-18T04:07:04.766Z,3.53
2019-03-18T04:09:33.140Z,3.59
2019-03-18T04:12:01.862Z,3.62
2019-03-18T04:14:30.237Z,3.65
2019-03-18T04:17:02.669Z,3.70
2019-03-18T04:19:28.783Z,3.74
2019-03-18T04:21:57.447Z,3.64
2019-03-18T04:24:25.834Z,3.76
2019-03-18T04:26:54.229Z,3.74
2019-03-18T04:29:23.334Z,3.71
2019-03-18T04:31:51.937Z,3.64
2019-03-18T04:34:20.584Z,3.73
2019-03-18T04:36:49.219Z,3.67
2019-03-18T04:39:17.604Z,3.70
2019-03-18T04:41:46.010Z,3.66
2019-03-18T04:44:14.657Z,3.73
2019-03-18T04:46:43.350Z,3.98
2019-03-18T04:49:11.994Z,3.89
2019-03-18T04:51:40.382Z,3.89
2019-03-18T04:54:09.023Z,3.87
2019-03-18T04:56:37.654Z,3.77
2019-03-18T04:59:06.041Z,3.96
2019-03-18T05:01:34.435Z,3.90
2019-03-18T05:04:02.823Z,4.02
2019-03-18T05:06:31.267Z,4.00
2019-03-18T05:08:59.654Z,3.93
2019-03-18T05:11:28.096Z,3.81
2019-03-18T05:13:56.585Z,3.76
2019-03-18T05:16:25.046Z,3.66
2019-03-18T05:18:53.447Z,3.60
2019-03-18T05:21:22.087Z,3.67
2019-03-18T05:23:50.496Z,3.61
2019-03-18T05:26:18.884Z,3.60
2019-03-18T05:28:47.268Z,3.60
2019-03-18T05:31:15.673Z,3.65
2019-03-18T05:33:44.059Z,3.77
2019-03-18T05:36:12.446Z,3.73
2019-03-18T05:38:40.857Z,3.77
2019-03-18T05:41:09.254Z,3.71
2019-03-18T05:43:37.908Z,3.64
2019-03-18T05:46:06.530Z,3.59
2019-03-18T05:48:35.158Z,3.56
2019-03-18T05:51:03.797Z,3.56
2019-03-18T05:53:32.418Z,3.64
2019-03-18T05:56:01.033Z,3.60
2019-03-18T05:58:29.494Z,3.63
2019-03-18T06:00:58.049Z,3.70
2019-03-18T06:03:26.677Z,3.79
2019-03-18T06:05:55.093Z,3.92
2019-03-18T06:08:23.732Z,4.04
2019-03-18T06:10:52.358Z,4.01
2019-03-18T06:13:20.747Z,4.16
2019-03-18T06:15:49.149Z,4.16
2019-03-18T06:18:17.816Z,4.15
2019-03-18T06:20:46.396Z,4.30
2019-03-18T06:23:14.798Z,4.13
2019-03-18T06:25:43.413Z,4.33
2019-03-18T06:28:11.881Z,4.40
2019-03-18T06:30:40.339Z,4.58
2019-03-18T06:33:08.957Z,4.54
2019-03-18T06:35:37.610Z,4.53
2019-03-18T06:38:05.991Z,4.65
2019-03-18T06:40:34.605Z,4.72
2019-03-18T06:43:03.242Z,4.73
2019-03-18T06:45:31.631Z,4.84
2019-03-18T06:48:05.273Z,4.88
2019-03-18T06:50:30.380Z,4.97
2019-03-18T06:52:58.795Z,4.88
2019-03-18T06:55:27.502Z,4.94
2019-03-18T06:57:56.116Z,4.80
2019-03-18T07:00:24.733Z,4.84
2019-03-18T07:02:53.361Z,4.79
2019-03-18T07:05:21.744Z,4.96
2019-03-18T07:07:50.147Z,5.11
2019-03-18T07:10:18.605Z,4.97
2019-03-18T07:12:47.001Z,5.07
2019-03-18T07:15:15.387Z,5.12
2019-03-18T07:17:44.078Z,5.06
2019-03-18T07:20:14.537Z,5.15
2019-03-18T07:22:42.976Z,5.26
2019-03-18T07:25:11.732Z,5.41
2019-03-18T07:27:40.360Z,5.61
2019-03-18T07:30:13.820Z,5.64
2019-03-18T07:32:42.208Z,5.62
2019-03-18T07:35:10.660Z,5.59
2019-03-18T07:37:39.069Z,5.50
2019-03-18T07:40:11.311Z,5.90
2019-03-18T07:42:39.974Z,5.68
2019-03-18T07:45:11.640Z,5.45
2019-03-18T07:47:40.056Z,5.59
2019-03-18T07:50:15.502Z,5.48
2019-03-18T07:52:44.277Z,5.75
2019-03-18T07:55:12.976Z,5.82
2019-03-18T07:57:41.616Z,5.85
2019-03-18T08:00:16.530Z,5.72
2019-03-18T08:02:45.109Z,5.63
2019-03-18T08:05:13.592Z,5.63
2019-03-18T08:07:42.218Z,5.71
2019-03-18T08:10:12.252Z,6.03
2019-03-18T08:12:40.652Z,5.89
2019-03-18T08:15:10.816Z,5.86
2019-03-18T08:17:39.487Z,5.69
2019-03-18T08:20:09.988Z,5.77
2019-03-18T08:22:38.360Z,5.80
2019-03-18T08:25:08.241Z,5.77
2019-03-18T08:27:36.647Z,5.73
2019-03-18T08:30:11.093Z,5.79
2019-03-18T08:32:39.477Z,5.93
2019-03-18T08:35:08.199Z,5.75
2019-03-18T08:37:36.713Z,5.70
2019-03-18T08:40:07.881Z,5.33
2019-03-18T08:42:36.281Z,5.29
2019-03-18T08:45:10.145Z,5.28
2019-03-18T08:47:38.527Z,5.22
2019-03-18T08:50:12.261Z,5.10
2019-03-18T08:52:40.145Z,5.14
2019-03-18T08:55:09.895Z,5.48
2019-03-18T08:57:38.282Z,5.95
2019-03-18T09:00:09.933Z,5.96
2019-03-18T09:02:38.331Z,6.23
2019-03-18T09:05:07.804Z,6.37
2019-03-18T09:07:36.504Z,6.51
2019-03-18T09:10:08.035Z,6.76
2019-03-18T09:12:36.673Z,6.77
2019-03-18T09:15:07.387Z,7.14
2019-03-18T09:17:35.824Z,7.11
2019-03-18T09:20:17.500Z,7.50
2019-03-18T09:22:45.941Z,7.28
2019-03-18T09:25:14.399Z,7.18
2019-03-18T09:27:42.860Z,7.28
2019-03-18T09:30:18.450Z,7.16
2019-03-18T09:32:46.860Z,6.95
2019-03-18T09:35:15.553Z,7.16
2019-03-18T09:37:44.163Z,7.15
2019-03-18T09:40:14.438Z,7.43
2019-03-18T09:42:42.829Z,7.83
2019-03-18T09:45:15.613Z,7.93
2019-03-18T09:47:44.194Z,7.67
2019-03-18T09:50:13.005Z,7.72
2019-03-18T09:52:41.768Z,7.87
2019-03-18T09:55:11.611Z,8.29
2019-03-18T09:57:39.977Z,8.26
2019-03-18T10:00:14.508Z,8.58
2019-03-18T10:02:43.014Z,8.64
2019-03-18T10:05:11.396Z,8.69
2019-03-18T10:07:39.774Z,8.12
2019-03-18T10:10:13.042Z,8.15
2019-03-18T10:12:41.461Z,8.42
2019-03-18T10:15:17.004Z,8.72
2019-03-18T10:17:45.380Z,8.88
2019-03-18T10:20:14.192Z,8.96
2019-03-18T10:22:42.786Z,8.78
2019-03-18T10:25:11.235Z,8.76
2019-03-18T10:27:39.766Z,8.96
2019-03-18T10:30:15.158Z,9.19
2019-03-18T10:32:43.625Z,9.71
2019-03-18T10:35:11.998Z,9.93
2019-03-18T10:37:40.368Z,9.75
2019-03-18T10:40:12.490Z,9.76
2019-03-18T10:42:41.281Z,9.60
2019-03-18T10:45:11.202Z,9.37
2019-03-18T10:47:39.579Z,9.36
2019-03-18T10:50:15.482Z,9.42
2019-03-18T10:52:43.967Z,9.54
2019-03-18T10:55:12.760Z,9.70
2019-03-18T10:57:41.428Z,9.58
2019-03-18T11:00:17.704Z,9.43
2019-03-18T11:02:46.093Z,8.95
2019-03-18T11:05:15.111Z,9.12
2019-03-18T11:07:43.458Z,9.01
2019-03-18T11:10:13.277Z,9.44
2019-03-18T11:12:41.720Z,9.32
2019-03-18T11:15:15.027Z,9.32
2019-03-18T11:17:43.402Z,9.70
2019-03-18T11:20:14.324Z,9.86
2019-03-18T11:22:42.948Z,9.55
2019-03-18T11:25:12.458Z,9.61
2019-03-18T11:27:41.088Z,9.76
2019-03-18T11:30:12.886Z,9.82
2019-03-18T11:32:41.252Z,9.25
2019-03-18T11:35:09.708Z,8.90
2019-03-18T11:37:38.392Z,8.61
2019-03-18T11:40:11.888Z,8.71
2019-03-18T11:42:40.504Z,8.84
2019-03-18T11:45:11.544Z,8.82
2019-03-18T11:47:39.937Z,8.83
2019-03-18T11:50:15.706Z,8.95
2019-03-18T11:52:44.281Z,8.80
2019-03-18T11:55:20.824Z,9.28
2019-03-18T11:57:49.451Z,9.47
2019-03-18T12:00:19.707Z,9.40
2019-03-18T12:02:48.147Z,9.15
2019-03-18T12:05:19.849Z,9.08
2019-03-18T12:07:48.217Z,8.96
2019-03-18T12:10:20.265Z,9.15
2019-03-18T12:12:48.868Z,9.30
2019-03-18T12:15:23.179Z,9.64
2019-03-18T12:17:51.813Z,9.92
2019-03-18T12:20:24.887Z,9.67
2019-03-18T12:22:50.435Z,9.95
2019-03-18T12:25:18.881Z,9.98
2019-03-18T12:27:47.276Z,9.99
2019-03-18T12:30:23.604Z,10.03
2019-03-18T12:32:52.225Z,10.53
2019-03-18T12:35:20.626Z,10.43
2019-03-18T12:37:49.311Z,10.37
2019-03-18T12:40:18.041Z,10.16
2019-03-18T12:42:46.490Z,10.24
2019-03-18T12:45:18.729Z,10.33
2019-03-18T12:47:47.523Z,10.10
2019-03-18T12:50:18.949Z,9.85
2019-03-18T12:52:47.347Z,9.78
2019-03-18T12:55:16.102Z,9.96
2019-03-18T12:57:44.544Z,9.61
2019-03-18T13:00:27.364Z,9.56
2019-03-18T13:02:55.816Z,9.59
2019-03-18T13:05:24.271Z,9.39
2019-03-18T13:07:52.967Z,9.85
2019-03-18T13:10:22.176Z,9.70
2019-03-18T13:12:50.864Z,9.71
2019-03-18T13:15:20.145Z,9.42
2019-03-18T13:17:48.845Z,9.39
2019-03-18T13:20:18.659Z,9.66
2019-03-18T13:22:47.045Z,9.42
2019-03-18T13:25:15.439Z,9.34
2019-03-18T13:27:44.133Z,9.51
2019-03-18T13:30:15.633Z,9.84
2019-03-18T13:32:44.452Z,9.80
2019-03-18T13:35:12.999Z,9.88
2019-03-18T13:37:41.516Z,10.09
2019-03-18T13:40:15.745Z,9.87
2019-03-18T13:42:44.284Z,9.91
2019-03-18T13:45:20.133Z,9.76
2019-03-18T13:47:48.878Z,9.42
2019-03-18T13:50:23.379Z,9.61
2019-03-18T13:52:51.989Z,9.41
2019-03-18T13:55:20.437Z,9.47
2019-03-18T13:57:48.827Z,9.23
2019-03-18T14:00:20.703Z,9.20
2019-03-18T14:02:49.398Z,9.13
2019-03-18T14:05:17.780Z,9.00
2019-03-18T14:07:58.980Z,8.93
2019-03-18T14:10:21.067Z,8.85
2019-03-18T14:12:49.512Z,8.78
2019-03-18T14:15:19.205Z,8.73
2019-03-18T14:17:47.658Z,8.69
2019-03-18T14:20:18.472Z,8.49
2019-03-18T14:22:47.104Z,8.52
2019-03-18T14:25:15.628Z,7.72
2019-03-18T14:27:44.000Z,7.41
2019-03-18T14:30:16.910Z,6.83
2019-03-18T14:32:45.226Z,6.17
2019-03-18T14:35:14.371Z,5.72
2019-03-18T14:37:42.891Z,5.39
2019-03-18T14:40:22.281Z,5.28
2019-03-18T14:42:50.733Z,5.54
2019-03-18T14:45:20.595Z,5.74
2019-03-18T14:47:48.998Z,5.96
2019-03-18T14:50:18.777Z,6.32
2019-03-18T14:52:47.516Z,6.46
2019-03-18T14:55:17.914Z,6.44
2019-03-18T14:57:46.303Z,6.75
2019-03-18T15:00:30.015Z,6.88
2019-03-18T15:02:58.713Z,7.20
2019-03-18T15:05:27.097Z,7.53
2019-03-18T15:07:56.310Z,7.86
2019-03-18T15:10:26.661Z,7.64
2019-03-18T15:12:55.218Z,7.55
2019-03-18T15:15:23.845Z,7.70
2019-03-18T15:17:52.266Z,7.66
2019-03-18T15:20:23.694Z,7.56
2019-03-18T15:22:52.172Z,7.44
2019-03-18T15:25:28.068Z,7.41
2019-03-18T15:27:56.458Z,7.53
2019-03-18T15:30:25.080Z,7.66
2019-03-18T15:32:53.783Z,7.59
2019-03-18T15:35:22.159Z,7.61
2019-03-18T15:37:50.548Z,7.55
2019-03-18T15:40:23.367Z,7.85
2019-03-18T15:42:51.743Z,7.94
2019-03-18T15:45:21.260Z,7.96
2019-03-18T15:47:49.692Z,8.08
2019-03-18T15:50:23.906Z,8.20
2019-03-18T15:52:52.350Z,8.28
2019-03-18T15:55:23.762Z,8.67
2019-03-18T15:57:51.011Z,8.79
2019-03-18T16:00:26.831Z,9.02
2019-03-18T16:02:55.204Z,8.78
2019-03-18T16:05:23.823Z,8.97
2019-03-18T16:07:52.274Z,8.77
2019-03-18T16:10:21.398Z,8.73
2019-03-18T16:12:49.899Z,8.44
2019-03-18T16:15:18.697Z,8.46
2019-03-18T16:17:47.483Z,8.40
2019-03-18T16:20:22.893Z,8.28
2019-03-18T16:22:51.254Z,8.37
2019-03-18T16:25:19.764Z,8.29
2019-03-18T16:27:48.398Z,7.97
2019-03-18T16:30:20.549Z,7.87
2019-03-18T16:32:48.936Z,7.90
2019-03-18T16:35:17.749Z,7.88
2019-03-18T16:37:46.149Z,7.88
2019-03-18T16:40:16.826Z,7.89
2019-03-18T16:42:45.202Z,7.89
2019-03-18T16:45:17.111Z,7.94
2019-03-18T16:47:45.486Z,7.91
2019-03-18T16:50:19.636Z,7.79
2019-03-18T16:52:48.010Z,7.62
2019-03-18T16:55:16.379Z,7.64
2019-03-18T16:57:44.771Z,7.63
2019-03-18T17:00:23.508Z,7.53
2019-03-18T17:02:51.956Z,7.45
2019-03-18T17:05:20.559Z,7.44
2019-03-18T17:07:48.950Z,7.46
2019-03-18T17:10:17.813Z,7.44
2019-03-18T17:12:46.195Z,6.48
2019-03-18T17:15:16.771Z,5.50
2019-03-18T17:17:45.153Z,5.31
2019-03-18T17:20:14.823Z,5.27
2019-03-18T17:22:49.371Z,5.07
2019-03-18T17:25:24.145Z,4.96
2019-03-18T17:27:52.591Z,5.09
2019-03-18T17:30:21.312Z,5.01
2019-03-18T17:32:49.805Z,4.93
2019-03-18T17:35:18.418Z,4.67
2019-03-18T17:37:47.064Z,4.51
2019-03-18T17:40:16.560Z,4.39
2019-03-18T17:42:45.075Z,4.35
2019-03-18T17:45:18.710Z,4.53
2019-03-18T17:47:47.681Z,4.49
2019-03-18T17:50:23.658Z,4.40
2019-03-18T17:53:02.219Z,4.48
2019-03-18T17:55:22.627Z,4.35
2019-03-18T17:57:51.091Z,4.25
2019-03-18T18:00:39.239Z,4.16
2019-03-18T18:03:07.955Z,4.30
2019-03-18T18:05:37.347Z,4.28
2019-03-18T18:08:05.973Z,4.26
2019-03-18T18:10:34.444Z,4.31
2019-03-18T18:13:04.261Z,4.04
2019-03-18T18:15:33.063Z,4.10
2019-03-18T18:18:01.452Z,4.21
2019-03-18T18:20:30.090Z,4.15
2019-03-18T18:22:58.720Z,4.09
2019-03-18T18:25:27.361Z,4.08
2019-03-18T18:27:56.051Z,4.14
2019-03-18T18:30:24.692Z,4.11
2019-03-18T18:32:53.080Z,4.07
2019-03-18T18:35:23.881Z,4.03
2019-03-18T18:37:52.247Z,4.00
2019-03-18T18:40:22.679Z,3.98
2019-03-18T18:42:51.135Z,3.90
2019-03-18T18:45:21.268Z,3.93
2019-03-18T18:47:49.827Z,3.85
2019-03-18T18:50:18.459Z,3.72
2019-03-18T18:52:46.904Z,3.86
2019-03-18T18:55:15.735Z,3.89
2019-03-18T18:57:44.117Z,3.90
2019-03-18T19:00:22.880Z,3.88
2019-03-18T19:02:51.509Z,3.93
2019-03-18T19:05:20.039Z,3.91
2019-03-18T19:07:48.512Z,3.96
2019-03-18T19:10:18.882Z,4.00
2019-03-18T19:12:47.289Z,3.98
2019-03-18T19:15:18.958Z,3.98
2019-03-18T19:17:54.225Z,3.96
2019-03-18T19:20:24.616Z,4.11
2019-03-18T19:22:52.971Z,4.38
2019-03-18T19:25:21.446Z,4.28
2019-03-18T19:27:50.067Z,4.37
2019-03-18T19:30:22.844Z,4.35
2019-03-18T19:32:51.520Z,4.34
2019-03-18T19:35:20.067Z,4.31
2019-03-18T19:37:48.825Z,4.22
2019-03-18T19:40:18.852Z,4.28
2019-03-18T19:42:47.875Z,4.14
2019-03-18T19:45:16.498Z,3.97
2019-03-18T19:47:45.185Z,4.16
2019-03-18T19:50:24.999Z,3.95
2019-03-18T19:52:53.718Z,3.98
2019-03-18T19:55:22.351Z,3.93
2019-03-18T19:57:51.487Z,4.01
2019-03-18T20:00:22.084Z,4.16
2019-03-18T20:02:51.009Z,4.18
2019-03-18T20:05:19.671Z,4.15
2019-03-18T20:07:48.679Z,4.22
2019-03-18T20:10:19.164Z,4.13
2019-03-18T20:12:48.043Z,4.13
2019-03-18T20:15:20.433Z,4.10
2019-03-18T20:17:49.531Z,4.02
2019-03-18T20:20:20.378Z,4.04
2019-03-18T20:22:48.930Z,4.04
2019-03-18T20:25:17.555Z,3.97
2019-03-18T20:27:46.326Z,3.88
2019-03-18T20:30:16.647Z,3.85
2019-03-18T20:32:45.406Z,3.85
2019-03-18T20:35:17.943Z,3.62
2019-03-18T20:37:46.960Z,3.45
2019-03-18T20:40:16.288Z,3.34
2019-03-18T20:42:45.143Z,3.37
2019-03-18T20:45:20.601Z,3.40
2019-03-18T20:47:49.733Z,3.39
2019-03-18T20:50:25.885Z,3.19
2019-03-18T20:52:54.394Z,3.30
2019-03-18T20:55:22.805Z,3.21
2019-03-18T20:57:51.699Z,3.19
2019-03-18T21:00:23.916Z,3.18
2019-03-18T21:02:52.719Z,3.20
2019-03-18T21:05:21.349Z,3.25
2019-03-18T21:07:49.764Z,3.20
2019-03-18T21:10:19.656Z,3.11
2019-03-18T21:12:48.396Z,3.15
2019-03-18T21:15:18.304Z,3.15
2019-03-18T21:17:47.420Z,3.08
2019-03-18T21:20:20.143Z,3.01
2019-03-18T21:22:48.853Z,3.08
2019-03-18T21:25:17.575Z,3.11
2019-03-18T21:27:46.045Z,3.14
2019-03-18T21:30:17.525Z,3.11
2019-03-18T21:32:46.005Z,3.22
2019-03-18T21:35:14.413Z,3.14
2019-03-18T21:37:43.279Z,3.15
2019-03-18T21:40:14.306Z,3.13
2019-03-18T21:42:42.996Z,3.12
2019-03-18T21:45:23.309Z,3.27
2019-03-18T21:47:51.127Z,3.22
2019-03-18T21:50:20.490Z,3.13
2019-03-18T21:52:49.345Z,2.97
2019-03-18T21:55:17.865Z,2.90
2019-03-18T21:57:47.343Z,2.97
2019-03-18T22:00:19.778Z,2.90
2019-03-18T22:02:48.263Z,2.90
2019-03-18T22:05:16.759Z,2.86
2019-03-18T22:07:45.459Z,2.91
2019-03-18T22:10:15.736Z,2.92
2019-03-18T22:12:44.144Z,2.96
2019-03-18T22:15:14.469Z,3.02
2019-03-18T22:17:43.177Z,3.04
2019-03-18T22:20:18.215Z,3.06
2019-03-18T22:22:46.670Z,3.10
2019-03-18T22:25:15.874Z,3.26
2019-03-18T22:27:44.323Z,3.34
2019-03-18T22:30:18.973Z,3.55
2019-03-18T22:32:47.906Z,3.59
2019-03-18T22:35:16.678Z,3.39
2019-03-18T22:37:45.344Z,3.31
2019-03-18T22:40:17.075Z,3.35
2019-03-18T22:42:45.483Z,3.22
2019-03-18T22:45:15.013Z,3.22
2019-03-18T22:47:43.406Z,3.27
2019-03-18T22:50:13.204Z,3.29
2019-03-18T22:52:41.674Z,3.24
2019-03-18T22:55:12.090Z,3.30
2019-03-18T22:57:40.792Z,3.27
2019-03-18T23:00:35.495Z,3.30
2019-03-18T23:03:04.054Z,3.28
2019-03-18T23:05:32.679Z,3.47
2019-03-18T23:08:01.078Z,3.43
2019-03-18T23:10:29.708Z,3.58
2019-03-18T23:12:58.353Z,3.56
2019-03-18T23:15:26.743Z,3.62
2019-03-18T23:17:55.135Z,3.57
2019-03-18T23:20:23.540Z,3.53
2019-03-18T23:22:52.177Z,3.44
2019-03-18T23:25:20.808Z,3.43
2019-03-18T23:27:49.194Z,3.40
2019-03-18T23:30:17.590Z,3.33
2019-03-18T23:32:46.048Z,3.20
2019-03-18T23:35:14.445Z,3.18
2019-03-18T23:37:42.849Z,3.05
2019-03-18T23:40:12.919Z,3.00
2019-03-18T23:42:41.548Z,2.99
2019-03-18T23:45:10.890Z,2.97
2019-03-18T23:47:39.333Z,3.07
2019-03-18T23:50:11.163Z,3.08
2019-03-18T23:52:39.553Z,3.15
2019-03-18T23:55:18.317Z,3.22
2019-03-18T23:57:39.440Z,3.22
